sensor_id;sensor_type;location;lat;lon;timestamp;P1;durP1;ratioP1;P2;durP2;ratioP2
62796;SDS011;48839;48.546;-4.178;2022-08-01T00:01:15;3.70;;;2.17;;
62796;SDS011;48839;48.546;-4.178;2022-08-01T00:03:41;4.55;;;2.13;;
62796;SDS011;48839;48.546;-4.178;2022-08-01T00:06:07;4.88;;;2.47;;
62796;SDS011;48839;48.546;-4.178;2022-08-01T00:08:32;4.55;;;2.10;;
62796;SDS011;48839;48.546;-4.178;2022-08-01T00:10:58;6.20;;;2.70;;
62796;SDS011;48839;48.546;-4.178;2022-08-01T00:13:23;6.25;;;3.05;;
62796;SDS011;48839;48.546;-4.178;2022-08-01T00:15:49;5.20;;;2.70;;
62796;SDS011;48839;48.546;-4.178;2022-08-01T00:18:15;3.65;;;2.50;;
62796;SDS011;48839;48.546;-4.178;2022-08-01T00:20:40;5.22;;;2.78;;
62796;SDS011;48839;48.546;-4.178;2022-08-01T00:23:06;5.50;;;2.45;;
62796;SDS011;48839;48.546;-4.178;2022-08-01T00:25:31;4.50;;;2.50;;
62796;SDS011;48839;48.546;-4.178;2022-08-01T00:27:57;7.00;;;2.92;;
62796;SDS011;48839;48.546;-4.178;2022-08-01T00:30:23;9.88;;;3.60;;
62796;SDS011;48839;48.546;-4.178;2022-08-01T00:32:48;5.60;;;2.70;;
62796;SDS011;48839;48.546;-4.178;2022-08-01T00:35:14;6.43;;;3.17;;
62796;SDS011;48839;48.546;-4.178;2022-08-01T00:37:39;6.32;;;2.70;;
62796;SDS011;48839;48.546;-4.178;2022-08-01T00:40:06;4.85;;;2.67;;
62796;SDS011;48839;48.546;-4.178;2022-08-01T00:42:32;4.95;;;2.70;;
62796;SDS011;48839;48.546;-4.178;2022-08-01T00:44:58;5.60;;;2.80;;
62796;SDS011;48839;48.546;-4.178;2022-08-01T00:47:23;4.70;;;2.88;;
62796;SDS011;48839;48.546;-4.178;2022-08-01T00:49:49;6.95;;;2.92;;
62796;SDS011;48839;48.546;-4.178;2022-08-01T00:52:15;6.45;;;2.95;;
62796;SDS011;48839;48.546;-4.178;2022-08-01T00:54:40;6.55;;;2.88;;
62796;SDS011;48839;48.546;-4.178;2022-08-01T00:57:06;4.93;;;3.05;;
62796;SDS011;48839;48.546;-4.178;2022-08-01T00:59:33;5.80;;;3.17;;
62796;SDS011;48839;48.546;-4.178;2022-08-01T01:01:59;5.53;;;3.33;;
62796;SDS011;48839;48.546;-4.178;2022-08-01T01:04:25;5.97;;;3.20;;
62796;SDS011;48839;48.546;-4.178;2022-08-01T01:06:57;5.25;;;2.97;;
62796;SDS011;48839;48.546;-4.178;2022-08-01T01:09:37;6.85;;;3.92;;
62796;SDS011;48839;48.546;-4.178;2022-08-01T01:12:30;6.03;;;3.50;;
62796;SDS011;48839;48.546;-4.178;2022-08-01T01:18:43;8.18;;;3.80;;
62796;SDS011;48839;48.546;-4.178;2022-08-01T01:21:01;6.53;;;3.53;;
62796;SDS011;48839;48.546;-4.178;2022-08-01T01:23:39;6.45;;;3.35;;
62796;SDS011;48839;48.546;-4.178;2022-08-01T01:29:11;7.68;;;3.55;;
62796;SDS011;48839;48.546;-4.178;2022-08-01T01:32:02;8.85;;;3.70;;
62796;SDS011;48839;48.546;-4.178;2022-08-01T01:34:38;8.20;;;3.97;;
62796;SDS011;48839;48.546;-4.178;2022-08-01T01:37:08;8.13;;;3.97;;
62796;SDS011;48839;48.546;-4.178;2022-08-01T01:39:37;7.28;;;3.28;;
62796;SDS011;48839;48.546;-4.178;2022-08-01T01:42:05;6.53;;;3.83;;
62796;SDS011;48839;48.546;-4.178;2022-08-01T01:44:32;8.02;;;3.80;;
62796;SDS011;48839;48.546;-4.178;2022-08-01T01:46:59;8.52;;;4.00;;
62796;SDS011;48839;48.546;-4.178;2022-08-01T01:49:26;7.45;;;3.72;;
62796;SDS011;48839;48.546;-4.178;2022-08-01T01:51:54;7.15;;;3.95;;
62796;SDS011;48839;48.546;-4.178;2022-08-01T01:54:22;7.72;;;3.42;;
62796;SDS011;48839;48.546;-4.178;2022-08-01T01:56:50;8.90;;;4.47;;
62796;SDS011;48839;48.546;-4.178;2022-08-01T01:59:18;11.25;;;3.83;;
62796;SDS011;48839;48.546;-4.178;2022-08-01T02:01:46;7.53;;;3.45;;
62796;SDS011;48839;48.546;-4.178;2022-08-01T02:04:14;7.07;;;3.67;;
62796;SDS011;48839;48.546;-4.178;2022-08-01T02:06:42;6.70;;;3.78;;
62796;SDS011;48839;48.546;-4.178;2022-08-01T02:09:10;7.45;;;3.72;;
62796;SDS011;48839;48.546;-4.178;2022-08-01T02:11:36;12.35;;;4.45;;
62796;SDS011;48839;48.546;-4.178;2022-08-01T02:14:04;9.50;;;4.18;;
62796;SDS011;48839;48.546;-4.178;2022-08-01T02:16:36;8.48;;;4.35;;
62796;SDS011;48839;48.546;-4.178;2022-08-01T02:19:06;9.02;;;4.70;;
62796;SDS011;48839;48.546;-4.178;2022-08-01T02:24:21;11.02;;;4.43;;
62796;SDS011;48839;48.546;-4.178;2022-08-01T02:26:57;8.43;;;4.70;;
62796;SDS011;48839;48.546;-4.178;2022-08-01T02:29:37;9.88;;;4.43;;
62796;SDS011;48839;48.546;-4.178;2022-08-01T02:32:07;7.13;;;4.03;;
62796;SDS011;48839;48.546;-4.178;2022-08-01T02:34:36;6.97;;;3.35;;
62796;SDS011;48839;48.546;-4.178;2022-08-01T02:37:03;8.65;;;4.07;;
62796;SDS011;48839;48.546;-4.178;2022-08-01T02:39:30;8.80;;;3.97;;
62796;SDS011;48839;48.546;-4.178;2022-08-01T02:41:57;8.02;;;3.78;;
62796;SDS011;48839;48.546;-4.178;2022-08-01T02:44:30;8.57;;;3.72;;
62796;SDS011;48839;48.546;-4.178;2022-08-01T02:47:00;6.25;;;3.53;;
62796;SDS011;48839;48.546;-4.178;2022-08-01T02:49:29;8.23;;;4.00;;
62796;SDS011;48839;48.546;-4.178;2022-08-01T02:52:05;8.05;;;3.50;;
62796;SDS011;48839;48.546;-4.178;2022-08-01T02:54:34;7.75;;;3.42;;
62796;SDS011;48839;48.546;-4.178;2022-08-01T02:57:01;5.72;;;2.55;;
62796;SDS011;48839;48.546;-4.178;2022-08-01T02:59:29;9.65;;;3.30;;
62796;SDS011;48839;48.546;-4.178;2022-08-01T03:01:56;6.15;;;3.08;;
62796;SDS011;48839;48.546;-4.178;2022-08-01T03:04:24;9.32;;;3.28;;
62796;SDS011;48839;48.546;-4.178;2022-08-01T03:06:51;5.90;;;2.72;;
62796;SDS011;48839;48.546;-4.178;2022-08-01T03:09:19;5.10;;;2.67;;
62796;SDS011;48839;48.546;-4.178;2022-08-01T03:11:46;5.25;;;2.63;;
62796;SDS011;48839;48.546;-4.178;2022-08-01T03:14:14;6.88;;;3.40;;
62796;SDS011;48839;48.546;-4.178;2022-08-01T03:16:42;5.40;;;3.10;;
62796;SDS011;48839;48.546;-4.178;2022-08-01T03:19:11;5.88;;;2.90;;
62796;SDS011;48839;48.546;-4.178;2022-08-01T03:21:38;6.10;;;3.42;;
62796;SDS011;48839;48.546;-4.178;2022-08-01T03:24:07;5.32;;;2.85;;
62796;SDS011;48839;48.546;-4.178;2022-08-01T03:26:35;6.63;;;3.22;;
62796;SDS011;48839;48.546;-4.178;2022-08-01T03:29:04;7.28;;;2.97;;
62796;SDS011;48839;48.546;-4.178;2022-08-01T03:31:38;4.97;;;2.75;;
62796;SDS011;48839;48.546;-4.178;2022-08-01T03:34:08;7.68;;;3.20;;
62796;SDS011;48839;48.546;-4.178;2022-08-01T03:36:34;6.15;;;2.85;;
62796;SDS011;48839;48.546;-4.178;2022-08-01T03:39:08;5.68;;;3.25;;
62796;SDS011;48839;48.546;-4.178;2022-08-01T03:41:37;5.30;;;3.08;;
62796;SDS011;48839;48.546;-4.178;2022-08-01T03:44:16;6.65;;;2.92;;
62796;SDS011;48839;48.546;-4.178;2022-08-01T03:46:48;6.53;;;3.33;;
62796;SDS011;48839;48.546;-4.178;2022-08-01T03:49:22;4.82;;;2.83;;
62796;SDS011;48839;48.546;-4.178;2022-08-01T03:51:51;5.70;;;3.05;;
62796;SDS011;48839;48.546;-4.178;2022-08-01T03:54:23;5.45;;;2.83;;
62796;SDS011;48839;48.546;-4.178;2022-08-01T03:56:50;6.13;;;3.00;;
62796;SDS011;48839;48.546;-4.178;2022-08-01T03:59:17;6.07;;;3.00;;
62796;SDS011;48839;48.546;-4.178;2022-08-01T04:01:44;5.60;;;3.42;;
62796;SDS011;48839;48.546;-4.178;2022-08-01T04:04:11;6.10;;;2.83;;
62796;SDS011;48839;48.546;-4.178;2022-08-01T04:06:40;3.83;;;2.17;;
62796;SDS011;48839;48.546;-4.178;2022-08-01T04:09:08;4.35;;;2.53;;
62796;SDS011;48839;48.546;-4.178;2022-08-01T04:11:35;4.03;;;2.50;;
62796;SDS011;48839;48.546;-4.178;2022-08-01T04:14:00;9.85;;;2.60;;
62796;SDS011;48839;48.546;-4.178;2022-08-01T04:16:26;3.58;;;2.50;;
62796;SDS011;48839;48.546;-4.178;2022-08-01T04:18:52;6.47;;;2.45;;
62796;SDS011;48839;48.546;-4.178;2022-08-01T04:21:18;4.10;;;2.10;;
62796;SDS011;48839;48.546;-4.178;2022-08-01T04:23:47;3.33;;;2.40;;
62796;SDS011;48839;48.546;-4.178;2022-08-01T04:26:16;4.53;;;2.70;;
62796;SDS011;48839;48.546;-4.178;2022-08-01T04:28:44;3.97;;;2.47;;
62796;SDS011;48839;48.546;-4.178;2022-08-01T04:31:10;5.75;;;2.30;;
62796;SDS011;48839;48.546;-4.178;2022-08-01T04:33:40;5.40;;;2.70;;
62796;SDS011;48839;48.546;-4.178;2022-08-01T04:36:11;4.85;;;2.80;;
62796;SDS011;48839;48.546;-4.178;2022-08-01T04:38:39;5.55;;;2.65;;
62796;SDS011;48839;48.546;-4.178;2022-08-01T04:41:07;6.22;;;2.78;;
62796;SDS011;48839;48.546;-4.178;2022-08-01T04:43:37;4.53;;;2.70;;
62796;SDS011;48839;48.546;-4.178;2022-08-01T04:46:03;4.75;;;2.78;;
62796;SDS011;48839;48.546;-4.178;2022-08-01T04:48:32;6.07;;;2.70;;
62796;SDS011;48839;48.546;-4.178;2022-08-01T04:50:59;5.05;;;3.00;;
62796;SDS011;48839;48.546;-4.178;2022-08-01T04:53:25;5.75;;;2.97;;
62796;SDS011;48839;48.546;-4.178;2022-08-01T04:55:51;5.38;;;2.58;;
62796;SDS011;48839;48.546;-4.178;2022-08-01T04:58:17;5.63;;;3.42;;
62796;SDS011;48839;48.546;-4.178;2022-08-01T05:00:43;4.43;;;2.80;;
62796;SDS011;48839;48.546;-4.178;2022-08-01T05:03:08;4.88;;;2.80;;
62796;SDS011;48839;48.546;-4.178;2022-08-01T05:05:34;6.18;;;3.00;;
62796;SDS011;48839;48.546;-4.178;2022-08-01T05:08:00;4.15;;;2.67;;
62796;SDS011;48839;48.546;-4.178;2022-08-01T05:10:26;5.55;;;2.65;;
62796;SDS011;48839;48.546;-4.178;2022-08-01T05:12:52;6.05;;;2.85;;
62796;SDS011;48839;48.546;-4.178;2022-08-01T05:15:18;7.22;;;3.25;;
62796;SDS011;48839;48.546;-4.178;2022-08-01T05:17:44;7.75;;;2.92;;
62796;SDS011;48839;48.546;-4.178;2022-08-01T05:20:10;6.75;;;2.97;;
62796;SDS011;48839;48.546;-4.178;2022-08-01T05:22:36;4.13;;;2.83;;
62796;SDS011;48839;48.546;-4.178;2022-08-01T05:25:03;5.25;;;2.50;;
62796;SDS011;48839;48.546;-4.178;2022-08-01T05:27:30;5.50;;;3.08;;
62796;SDS011;48839;48.546;-4.178;2022-08-01T05:29:56;6.57;;;2.60;;
62796;SDS011;48839;48.546;-4.178;2022-08-01T05:32:22;4.95;;;2.90;;
62796;SDS011;48839;48.546;-4.178;2022-08-01T05:34:48;4.88;;;2.75;;
62796;SDS011;48839;48.546;-4.178;2022-08-01T05:37:13;5.40;;;2.53;;
62796;SDS011;48839;48.546;-4.178;2022-08-01T05:39:39;5.53;;;2.88;;
62796;SDS011;48839;48.546;-4.178;2022-08-01T05:42:05;7.75;;;3.25;;
62796;SDS011;48839;48.546;-4.178;2022-08-01T05:44:31;4.30;;;2.80;;
62796;SDS011;48839;48.546;-4.178;2022-08-01T05:46:56;7.88;;;3.05;;
62796;SDS011;48839;48.546;-4.178;2022-08-01T05:49:22;7.68;;;3.10;;
62796;SDS011;48839;48.546;-4.178;2022-08-01T05:51:48;4.53;;;2.92;;
62796;SDS011;48839;48.546;-4.178;2022-08-01T05:54:14;5.13;;;2.67;;
62796;SDS011;48839;48.546;-4.178;2022-08-01T05:56:39;8.30;;;3.13;;
62796;SDS011;48839;48.546;-4.178;2022-08-01T05:59:05;5.22;;;2.65;;
62796;SDS011;48839;48.546;-4.178;2022-08-01T06:01:31;4.40;;;2.75;;
62796;SDS011;48839;48.546;-4.178;2022-08-01T06:03:56;4.03;;;2.90;;
62796;SDS011;48839;48.546;-4.178;2022-08-01T06:06:22;7.82;;;3.35;;
62796;SDS011;48839;48.546;-4.178;2022-08-01T06:08:48;5.75;;;3.28;;
62796;SDS011;48839;48.546;-4.178;2022-08-01T06:11:14;6.97;;;3.05;;
62796;SDS011;48839;48.546;-4.178;2022-08-01T06:13:40;8.10;;;3.55;;
62796;SDS011;48839;48.546;-4.178;2022-08-01T06:16:05;7.15;;;2.83;;
62796;SDS011;48839;48.546;-4.178;2022-08-01T06:18:31;7.07;;;3.10;;
62796;SDS011;48839;48.546;-4.178;2022-08-01T06:20:56;7.65;;;3.13;;
62796;SDS011;48839;48.546;-4.178;2022-08-01T06:23:22;5.70;;;3.25;;
62796;SDS011;48839;48.546;-4.178;2022-08-01T06:25:48;6.00;;;3.40;;
62796;SDS011;48839;48.546;-4.178;2022-08-01T06:28:17;7.43;;;3.78;;
62796;SDS011;48839;48.546;-4.178;2022-08-01T06:30:42;7.45;;;3.83;;
62796;SDS011;48839;48.546;-4.178;2022-08-01T06:33:08;5.72;;;3.65;;
62796;SDS011;48839;48.546;-4.178;2022-08-01T06:35:34;6.63;;;3.53;;
62796;SDS011;48839;48.546;-4.178;2022-08-01T06:37:59;6.57;;;3.70;;
62796;SDS011;48839;48.546;-4.178;2022-08-01T06:40:25;9.05;;;3.92;;
62796;SDS011;48839;48.546;-4.178;2022-08-01T06:42:51;6.40;;;3.53;;
62796;SDS011;48839;48.546;-4.178;2022-08-01T06:45:17;8.05;;;3.65;;
62796;SDS011;48839;48.546;-4.178;2022-08-01T06:47:43;5.43;;;3.53;;
62796;SDS011;48839;48.546;-4.178;2022-08-01T06:50:10;8.02;;;3.90;;
62796;SDS011;48839;48.546;-4.178;2022-08-01T06:52:36;4.97;;;3.20;;
62796;SDS011;48839;48.546;-4.178;2022-08-01T06:55:03;5.35;;;3.60;;
62796;SDS011;48839;48.546;-4.178;2022-08-01T06:57:29;7.72;;;3.90;;
62796;SDS011;48839;48.546;-4.178;2022-08-01T06:59:55;5.45;;;3.85;;
62796;SDS011;48839;48.546;-4.178;2022-08-01T07:02:20;6.78;;;3.75;;
62796;SDS011;48839;48.546;-4.178;2022-08-01T07:04:46;6.00;;;3.92;;
62796;SDS011;48839;48.546;-4.178;2022-08-01T07:07:12;6.25;;;3.42;;
62796;SDS011;48839;48.546;-4.178;2022-08-01T07:09:38;5.82;;;3.15;;
62796;SDS011;48839;48.546;-4.178;2022-08-01T07:12:06;7.50;;;3.55;;
62796;SDS011;48839;48.546;-4.178;2022-08-01T07:14:32;4.65;;;3.53;;
62796;SDS011;48839;48.546;-4.178;2022-08-01T07:16:57;6.90;;;3.53;;
62796;SDS011;48839;48.546;-4.178;2022-08-01T07:19:23;8.32;;;2.72;;
62796;SDS011;48839;48.546;-4.178;2022-08-01T07:21:49;4.00;;;2.83;;
62796;SDS011;48839;48.546;-4.178;2022-08-01T07:24:14;6.70;;;3.17;;
62796;SDS011;48839;48.546;-4.178;2022-08-01T07:26:44;4.63;;;3.40;;
62796;SDS011;48839;48.546;-4.178;2022-08-01T07:29:11;5.47;;;3.33;;
62796;SDS011;48839;48.546;-4.178;2022-08-01T07:31:37;5.10;;;3.08;;
62796;SDS011;48839;48.546;-4.178;2022-08-01T07:34:03;3.30;;;2.83;;
62796;SDS011;48839;48.546;-4.178;2022-08-01T07:36:28;4.03;;;2.75;;
62796;SDS011;48839;48.546;-4.178;2022-08-01T07:38:54;6.20;;;3.05;;
62796;SDS011;48839;48.546;-4.178;2022-08-01T07:41:20;8.05;;;3.75;;
62796;SDS011;48839;48.546;-4.178;2022-08-01T07:43:46;3.95;;;2.80;;
62796;SDS011;48839;48.546;-4.178;2022-08-01T07:46:14;5.82;;;2.90;;
62796;SDS011;48839;48.546;-4.178;2022-08-01T07:48:40;4.97;;;2.75;;
62796;SDS011;48839;48.546;-4.178;2022-08-01T07:51:06;7.20;;;2.90;;
62796;SDS011;48839;48.546;-4.178;2022-08-01T07:53:33;5.13;;;3.08;;
62796;SDS011;48839;48.546;-4.178;2022-08-01T07:55:59;4.05;;;2.72;;
62796;SDS011;48839;48.546;-4.178;2022-08-01T07:58:24;7.57;;;2.53;;
62796;SDS011;48839;48.546;-4.178;2022-08-01T08:00:50;3.58;;;2.08;;
62796;SDS011;48839;48.546;-4.178;2022-08-01T08:03:16;3.33;;;2.40;;
62796;SDS011;48839;48.546;-4.178;2022-08-01T08:05:41;4.22;;;2.30;;
62796;SDS011;48839;48.546;-4.178;2022-08-01T08:08:08;3.67;;;2.58;;
62796;SDS011;48839;48.546;-4.178;2022-08-01T08:10:35;4.40;;;2.70;;
62796;SDS011;48839;48.546;-4.178;2022-08-01T08:13:01;3.25;;;2.42;;
62796;SDS011;48839;48.546;-4.178;2022-08-01T08:15:27;4.05;;;2.67;;
62796;SDS011;48839;48.546;-4.178;2022-08-01T08:17:53;3.03;;;2.47;;
62796;SDS011;48839;48.546;-4.178;2022-08-01T08:20:19;3.90;;;2.40;;
62796;SDS011;48839;48.546;-4.178;2022-08-01T08:22:50;3.90;;;2.47;;
62796;SDS011;48839;48.546;-4.178;2022-08-01T08:25:16;2.30;;;2.10;;
62796;SDS011;48839;48.546;-4.178;2022-08-01T08:27:44;2.35;;;2.05;;
62796;SDS011;48839;48.546;-4.178;2022-08-01T08:30:10;2.17;;;1.98;;
62796;SDS011;48839;48.546;-4.178;2022-08-01T08:32:36;2.33;;;2.13;;
62796;SDS011;48839;48.546;-4.178;2022-08-01T08:35:02;2.50;;;2.10;;
62796;SDS011;48839;48.546;-4.178;2022-08-01T08:37:28;2.90;;;2.03;;
62796;SDS011;48839;48.546;-4.178;2022-08-01T08:39:54;3.53;;;2.58;;
62796;SDS011;48839;48.546;-4.178;2022-08-01T08:42:20;3.33;;;2.47;;
62796;SDS011;48839;48.546;-4.178;2022-08-01T08:44:46;3.92;;;2.47;;
62796;SDS011;48839;48.546;-4.178;2022-08-01T08:47:12;3.00;;;1.83;;
62796;SDS011;48839;48.546;-4.178;2022-08-01T08:49:39;3.42;;;2.65;;
62796;SDS011;48839;48.546;-4.178;2022-08-01T08:52:08;2.45;;;1.85;;
62796;SDS011;48839;48.546;-4.178;2022-08-01T08:54:35;3.92;;;2.28;;
62796;SDS011;48839;48.546;-4.178;2022-08-01T08:57:03;3.10;;;2.30;;
62796;SDS011;48839;48.546;-4.178;2022-08-01T08:59:29;3.58;;;2.40;;
62796;SDS011;48839;48.546;-4.178;2022-08-01T09:01:55;2.92;;;2.13;;
62796;SDS011;48839;48.546;-4.178;2022-08-01T09:04:21;2.08;;;1.63;;
62796;SDS011;48839;48.546;-4.178;2022-08-01T09:06:50;3.65;;;2.00;;
62796;SDS011;48839;48.546;-4.178;2022-08-01T09:09:16;3.47;;;1.80;;
62796;SDS011;48839;48.546;-4.178;2022-08-01T09:11:42;1.80;;;1.60;;
62796;SDS011;48839;48.546;-4.178;2022-08-01T09:14:09;3.55;;;1.75;;
62796;SDS011;48839;48.546;-4.178;2022-08-01T09:16:58;3.97;;;2.00;;
62796;SDS011;48839;48.546;-4.178;2022-08-01T09:19:39;2.75;;;1.70;;
62796;SDS011;48839;48.546;-4.178;2022-08-01T09:22:13;1.80;;;1.70;;
62796;SDS011;48839;48.546;-4.178;2022-08-01T09:24:55;1.60;;;1.40;;
62796;SDS011;48839;48.546;-4.178;2022-08-01T09:27:26;1.25;;;1.15;;
62796;SDS011;48839;48.546;-4.178;2022-08-01T09:29:52;1.85;;;1.58;;
62796;SDS011;48839;48.546;-4.178;2022-08-01T09:32:18;1.88;;;1.05;;
62796;SDS011;48839;48.546;-4.178;2022-08-01T09:34:45;2.10;;;1.20;;
62796;SDS011;48839;48.546;-4.178;2022-08-01T09:37:11;0.95;;;0.95;;
62796;SDS011;48839;48.546;-4.178;2022-08-01T09:39:42;1.08;;;1.02;;
62796;SDS011;48839;48.546;-4.178;2022-08-01T09:42:24;3.30;;;1.48;;
62796;SDS011;48839;48.546;-4.178;2022-08-01T09:44:51;2.25;;;1.27;;
62796;SDS011;48839;48.546;-4.178;2022-08-01T09:47:18;1.55;;;1.45;;
62796;SDS011;48839;48.546;-4.178;2022-08-01T09:49:45;2.53;;;1.20;;
62796;SDS011;48839;48.546;-4.178;2022-08-01T09:52:22;1.27;;;1.17;;
62796;SDS011;48839;48.546;-4.178;2022-08-01T09:55:07;2.08;;;1.50;;
62796;SDS011;48839;48.546;-4.178;2022-08-01T09:57:33;1.20;;;1.10;;
62796;SDS011;48839;48.546;-4.178;2022-08-01T09:59:59;1.40;;;1.30;;
62796;SDS011;48839;48.546;-4.178;2022-08-01T10:05:03;4.05;;;1.58;;
62796;SDS011;48839;48.546;-4.178;2022-08-01T10:07:30;2.25;;;1.90;;
62796;SDS011;48839;48.546;-4.178;2022-08-01T10:09:56;2.05;;;1.83;;
62796;SDS011;48839;48.546;-4.178;2022-08-01T10:12:37;1.95;;;1.50;;
62796;SDS011;48839;48.546;-4.178;2022-08-01T10:15:04;2.50;;;1.40;;
62796;SDS011;48839;48.546;-4.178;2022-08-01T10:17:31;2.13;;;1.27;;
62796;SDS011;48839;48.546;-4.178;2022-08-01T10:19:59;1.65;;;1.52;;
62796;SDS011;48839;48.546;-4.178;2022-08-01T10:22:27;2.17;;;1.20;;
62796;SDS011;48839;48.546;-4.178;2022-08-01T10:24:56;2.30;;;1.50;;
62796;SDS011;48839;48.546;-4.178;2022-08-01T10:27:24;3.17;;;1.65;;
62796;SDS011;48839;48.546;-4.178;2022-08-01T10:29:57;2.42;;;1.40;;
62796;SDS011;48839;48.546;-4.178;2022-08-01T10:32:32;1.45;;;1.35;;
62796;SDS011;48839;48.546;-4.178;2022-08-01T10:35:00;1.90;;;1.42;;
62796;SDS011;48839;48.546;-4.178;2022-08-01T10:37:27;2.95;;;1.80;;
62796;SDS011;48839;48.546;-4.178;2022-08-01T10:39:53;4.63;;;1.95;;
62796;SDS011;48839;48.546;-4.178;2022-08-01T10:42:20;2.65;;;2.08;;
62796;SDS011;48839;48.546;-4.178;2022-08-01T10:44:46;3.42;;;2.50;;
62796;SDS011;48839;48.546;-4.178;2022-08-01T10:47:14;2.95;;;1.92;;
62796;SDS011;48839;48.546;-4.178;2022-08-01T10:49:45;3.13;;;2.20;;
62796;SDS011;48839;48.546;-4.178;2022-08-01T10:52:18;2.58;;;2.38;;
62796;SDS011;48839;48.546;-4.178;2022-08-01T10:54:45;3.63;;;2.42;;
62796;SDS011;48839;48.546;-4.178;2022-08-01T10:57:12;3.97;;;2.58;;
62796;SDS011;48839;48.546;-4.178;2022-08-01T10:59:51;4.20;;;2.78;;
62796;SDS011;48839;48.546;-4.178;2022-08-01T11:02:30;2.88;;;1.80;;
62796;SDS011;48839;48.546;-4.178;2022-08-01T11:05:02;3.05;;;2.13;;
62796;SDS011;48839;48.546;-4.178;2022-08-01T11:07:45;2.40;;;1.80;;
62796;SDS011;48839;48.546;-4.178;2022-08-01T11:10:19;2.60;;;1.90;;
62796;SDS011;48839;48.546;-4.178;2022-08-01T11:12:53;3.65;;;2.20;;
62796;SDS011;48839;48.546;-4.178;2022-08-01T11:15:20;2.65;;;1.83;;
62796;SDS011;48839;48.546;-4.178;2022-08-01T11:17:50;3.08;;;2.50;;
62796;SDS011;48839;48.546;-4.178;2022-08-01T11:20:24;3.30;;;2.40;;
62796;SDS011;48839;48.546;-4.178;2022-08-01T11:30:41;2.10;;;1.90;;
62796;SDS011;48839;48.546;-4.178;2022-08-01T11:36:16;2.35;;;2.15;;
62796;SDS011;48839;48.546;-4.178;2022-08-01T11:38:45;2.05;;;1.85;;
62796;SDS011;48839;48.546;-4.178;2022-08-01T11:41:35;1.95;;;1.75;;
62796;SDS011;48839;48.546;-4.178;2022-08-01T11:44:08;1.95;;;1.77;;
62796;SDS011;48839;48.546;-4.178;2022-08-01T11:46:45;2.22;;;1.67;;
62796;SDS011;48839;48.546;-4.178;2022-08-01T11:52:13;1.73;;;1.50;;
62796;SDS011;48839;48.546;-4.178;2022-08-01T11:57:28;1.73;;;1.63;;
62796;SDS011;48839;48.546;-4.178;2022-08-01T11:59:56;2.05;;;1.50;;
62796;SDS011;48839;48.546;-4.178;2022-08-01T12:02:24;2.13;;;1.50;;
62796;SDS011;48839;48.546;-4.178;2022-08-01T12:04:53;2.05;;;1.85;;
62796;SDS011;48839;48.546;-4.178;2022-08-01T12:07:31;3.03;;;2.30;;
62796;SDS011;48839;48.546;-4.178;2022-08-01T12:10:03;2.10;;;1.90;;
62796;SDS011;48839;48.546;-4.178;2022-08-01T12:12:32;2.08;;;1.88;;
62796;SDS011;48839;48.546;-4.178;2022-08-01T12:15:00;1.20;;;1.10;;
62796;SDS011;48839;48.546;-4.178;2022-08-01T12:17:38;0.88;;;0.88;;
62796;SDS011;48839;48.546;-4.178;2022-08-01T12:20:06;1.25;;;1.15;;
62796;SDS011;48839;48.546;-4.178;2022-08-01T12:22:34;0.70;;;0.70;;
62796;SDS011;48839;48.546;-4.178;2022-08-01T12:25:07;1.00;;;1.00;;
62796;SDS011;48839;48.546;-4.178;2022-08-01T12:31:03;1.15;;;0.85;;
62796;SDS011;48839;48.546;-4.178;2022-08-01T12:33:29;0.95;;;0.90;;
62796;SDS011;48839;48.546;-4.178;2022-08-01T12:35:54;0.80;;;0.80;;
62796;SDS011;48839;48.546;-4.178;2022-08-01T12:38:21;2.08;;;1.02;;
62796;SDS011;48839;48.546;-4.178;2022-08-01T12:40:48;1.20;;;1.10;;
62796;SDS011;48839;48.546;-4.178;2022-08-01T12:43:17;1.15;;;1.02;;
62796;SDS011;48839;48.546;-4.178;2022-08-01T12:45:44;3.30;;;1.20;;
62796;SDS011;48839;48.546;-4.178;2022-08-01T12:48:12;5.05;;;1.63;;
62796;SDS011;48839;48.546;-4.178;2022-08-01T12:50:41;1.58;;;1.20;;
62796;SDS011;48839;48.546;-4.178;2022-08-01T12:53:08;1.33;;;0.95;;
62796;SDS011;48839;48.546;-4.178;2022-08-01T12:55:43;3.05;;;1.33;;
62796;SDS011;48839;48.546;-4.178;2022-08-01T12:58:11;1.50;;;1.40;;
62796;SDS011;48839;48.546;-4.178;2022-08-01T13:00:39;1.70;;;1.42;;
62796;SDS011;48839;48.546;-4.178;2022-08-01T13:03:11;1.45;;;1.35;;
62796;SDS011;48839;48.546;-4.178;2022-08-01T13:05:45;2.92;;;1.63;;
62796;SDS011;48839;48.546;-4.178;2022-08-01T13:08:14;1.15;;;1.10;;
62796;SDS011;48839;48.546;-4.178;2022-08-01T13:10:41;1.20;;;1.10;;
62796;SDS011;48839;48.546;-4.178;2022-08-01T13:13:07;1.00;;;1.00;;
62796;SDS011;48839;48.546;-4.178;2022-08-01T13:15:34;0.90;;;0.90;;
62796;SDS011;48839;48.546;-4.178;2022-08-01T13:18:21;1.10;;;1.00;;
62796;SDS011;48839;48.546;-4.178;2022-08-01T13:20:48;1.20;;;1.10;;
62796;SDS011;48839;48.546;-4.178;2022-08-01T13:23:15;1.38;;;1.27;;
62796;SDS011;48839;48.546;-4.178;2022-08-01T13:26:01;1.15;;;1.08;;
62796;SDS011;48839;48.546;-4.178;2022-08-01T13:28:27;1.20;;;1.10;;
62796;SDS011;48839;48.546;-4.178;2022-08-01T13:35:53;1.58;;;1.35;;
62796;SDS011;48839;48.546;-4.178;2022-08-01T13:38:21;1.92;;;1.13;;
62796;SDS011;48839;48.546;-4.178;2022-08-01T13:41:06;1.17;;;1.08;;
62796;SDS011;48839;48.546;-4.178;2022-08-01T13:43:32;1.20;;;1.10;;
62796;SDS011;48839;48.546;-4.178;2022-08-01T13:46:00;1.00;;;1.00;;
62796;SDS011;48839;48.546;-4.178;2022-08-01T13:48:28;0.85;;;0.85;;
62796;SDS011;48839;48.546;-4.178;2022-08-01T13:50:55;1.40;;;1.30;;
62796;SDS011;48839;48.546;-4.178;2022-08-01T13:53:20;2.10;;;1.25;;
62796;SDS011;48839;48.546;-4.178;2022-08-01T13:55:46;1.45;;;1.35;;
62796;SDS011;48839;48.546;-4.178;2022-08-01T13:58:12;1.00;;;0.90;;
62796;SDS011;48839;48.546;-4.178;2022-08-01T14:00:37;2.45;;;0.90;;
62796;SDS011;48839;48.546;-4.178;2022-08-01T14:03:03;3.55;;;0.90;;
62796;SDS011;48839;48.546;-4.178;2022-08-01T14:05:29;2.22;;;1.02;;
62796;SDS011;48839;48.546;-4.178;2022-08-01T14:07:55;2.28;;;1.10;;
62796;SDS011;48839;48.546;-4.178;2022-08-01T14:10:20;1.35;;;1.13;;
62796;SDS011;48839;48.546;-4.178;2022-08-01T14:12:47;1.42;;;1.23;;
62796;SDS011;48839;48.546;-4.178;2022-08-01T14:15:13;2.15;;;0.98;;
62796;SDS011;48839;48.546;-4.178;2022-08-01T14:17:39;1.33;;;1.00;;
62796;SDS011;48839;48.546;-4.178;2022-08-01T14:20:04;0.88;;;0.88;;
62796;SDS011;48839;48.546;-4.178;2022-08-01T14:22:30;0.80;;;0.80;;
62796;SDS011;48839;48.546;-4.178;2022-08-01T14:24:56;1.88;;;1.25;;
62796;SDS011;48839;48.546;-4.178;2022-08-01T14:27:21;2.88;;;0.98;;
62796;SDS011;48839;48.546;-4.178;2022-08-01T14:29:47;1.00;;;0.90;;
62796;SDS011;48839;48.546;-4.178;2022-08-01T14:32:13;0.60;;;0.60;;
62796;SDS011;48839;48.546;-4.178;2022-08-01T14:34:38;1.05;;;0.95;;
62796;SDS011;48839;48.546;-4.178;2022-08-01T14:37:04;0.90;;;0.90;;
62796;SDS011;48839;48.546;-4.178;2022-08-01T14:39:30;1.20;;;1.10;;
62796;SDS011;48839;48.546;-4.178;2022-08-01T14:41:55;1.10;;;1.00;;
62796;SDS011;48839;48.546;-4.178;2022-08-01T14:44:21;0.85;;;0.85;;
62796;SDS011;48839;48.546;-4.178;2022-08-01T14:46:46;1.10;;;0.95;;
62796;SDS011;48839;48.546;-4.178;2022-08-01T14:49:13;2.22;;;0.95;;
62796;SDS011;48839;48.546;-4.178;2022-08-01T14:51:39;1.60;;;0.98;;
62796;SDS011;48839;48.546;-4.178;2022-08-01T14:54:05;1.08;;;0.98;;
62796;SDS011;48839;48.546;-4.178;2022-08-01T14:56:31;1.52;;;0.93;;
62796;SDS011;48839;48.546;-4.178;2022-08-01T14:58:57;2.15;;;0.93;;
62796;SDS011;48839;48.546;-4.178;2022-08-01T15:01:23;1.00;;;0.75;;
62796;SDS011;48839;48.546;-4.178;2022-08-01T15:03:49;1.27;;;1.08;;
62796;SDS011;48839;48.546;-4.178;2022-08-01T15:06:15;1.35;;;1.20;;
62796;SDS011;48839;48.546;-4.178;2022-08-01T15:08:42;0.88;;;0.88;;
62796;SDS011;48839;48.546;-4.178;2022-08-01T15:11:08;1.23;;;1.13;;
62796;SDS011;48839;48.546;-4.178;2022-08-01T15:13:34;1.17;;;1.08;;
62796;SDS011;48839;48.546;-4.178;2022-08-01T15:15:59;3.10;;;1.05;;